sensor_id;sensor_type;location;lat;lon;timestamp;P1;durP1;ratioP1;P2;durP2;ratioP2
24859;SDS011;12936;52.006;4.350;2023-12-14T00:00:05;12.87;;;9.77;;
24859;SDS011;12936;52.006;4.350;2023-12-14T00:02:34;15.27;;;9.43;;
24859;SDS011;12936;52.006;4.350;2023-12-14T00:05:03;13.43;;;9.77;;
24859;SDS011;12936;52.006;4.350;2023-12-14T00:07:33;12.27;;;9.40;;
24859;SDS011;12936;52.006;4.350;2023-12-14T00:10:01;12.50;;;9.57;;
24859;SDS011;12936;52.006;4.350;2023-12-14T00:12:54;11.63;;;8.57;;
24859;SDS011;12936;52.006;4.350;2023-12-14T00:15:23;12.90;;;8.87;;
24859;SDS011;12936;52.006;4.350;2023-12-14T00:17:51;11.57;;;8.93;;
24859;SDS011;12936;52.006;4.350;2023-12-14T00:20:19;12.13;;;8.67;;
24859;SDS011;12936;52.006;4.350;2023-12-14T00:22:49;12.73;;;9.13;;
24859;SDS011;12936;52.006;4.350;2023-12-14T00:25:18;12.60;;;8.70;;
24859;SDS011;12936;52.006;4.350;2023-12-14T00:28:08;11.77;;;9.10;;
24859;SDS011;12936;52.006;4.350;2023-12-14T00:30:36;11.40;;;9.50;;
24859;SDS011;12936;52.006;4.350;2023-12-14T00:33:05;14.00;;;9.50;;
24859;SDS011;12936;52.006;4.350;2023-12-14T00:35:33;11.57;;;8.40;;
24859;SDS011;12936;52.006;4.350;2023-12-14T00:38:02;13.03;;;8.57;;
24859;SDS011;12936;52.006;4.350;2023-12-14T00:40:32;13.53;;;8.63;;
24859;SDS011;12936;52.006;4.350;2023-12-14T00:43:22;12.50;;;8.67;;
24859;SDS011;12936;52.006;4.350;2023-12-14T00:45:51;12.37;;;9.03;;
24859;SDS011;12936;52.006;4.350;2023-12-14T00:48:20;12.13;;;8.37;;
24859;SDS011;12936;52.006;4.350;2023-12-14T00:50:52;12.60;;;8.93;;
24859;SDS011;12936;52.006;4.350;2023-12-14T00:53:20;10.03;;;7.60;;
24859;SDS011;12936;52.006;4.350;2023-12-14T00:55:49;13.67;;;8.07;;
24859;SDS011;12936;52.006;4.350;2023-12-14T00:58:23;14.27;;;8.90;;
24859;SDS011;12936;52.006;4.350;2023-12-14T01:00:54;13.03;;;9.17;;
24859;SDS011;12936;52.006;4.350;2023-12-14T01:03:23;11.00;;;7.50;;
24859;SDS011;12936;52.006;4.350;2023-12-14T01:05:51;10.57;;;7.23;;
24859;SDS011;12936;52.006;4.350;2023-12-14T01:08:21;10.43;;;7.70;;
24859;SDS011;12936;52.006;4.350;2023-12-14T01:10:56;11.63;;;8.23;;
24859;SDS011;12936;52.006;4.350;2023-12-14T01:13:26;12.87;;;8.40;;
24859;SDS011;12936;52.006;4.350;2023-12-14T01:15:56;12.87;;;9.00;;
24859;SDS011;12936;52.006;4.350;2023-12-14T01:18:24;14.90;;;8.73;;
24859;SDS011;12936;52.006;4.350;2023-12-14T01:20:53;11.00;;;7.97;;
24859;SDS011;12936;52.006;4.350;2023-12-14T01:23:21;14.17;;;8.30;;
24859;SDS011;12936;52.006;4.350;2023-12-14T01:25:50;13.17;;;9.27;;
24859;SDS011;12936;52.006;4.350;2023-12-14T01:28:18;14.17;;;8.83;;
24859;SDS011;12936;52.006;4.350;2023-12-14T01:30:48;17.57;;;10.03;;
24859;SDS011;12936;52.006;4.350;2023-12-14T01:33:17;14.00;;;8.83;;
24859;SDS011;12936;52.006;4.350;2023-12-14T01:35:48;17.97;;;9.73;;
24859;SDS011;12936;52.006;4.350;2023-12-14T01:38:16;14.77;;;9.17;;
24859;SDS011;12936;52.006;4.350;2023-12-14T01:40:45;14.83;;;8.37;;
24859;SDS011;12936;52.006;4.350;2023-12-14T01:43:14;19.10;;;8.60;;
24859;SDS011;12936;52.006;4.350;2023-12-14T01:45:42;15.13;;;8.70;;
24859;SDS011;12936;52.006;4.350;2023-12-14T01:48:12;20.27;;;9.37;;
24859;SDS011;12936;52.006;4.350;2023-12-14T01:50:40;16.63;;;8.70;;
24859;SDS011;12936;52.006;4.350;2023-12-14T01:53:09;14.17;;;8.97;;
24859;SDS011;12936;52.006;4.350;2023-12-14T01:55:37;15.07;;;9.60;;
24859;SDS011;12936;52.006;4.350;2023-12-14T01:58:08;15.70;;;8.90;;
24859;SDS011;12936;52.006;4.350;2023-12-14T02:00:39;21.30;;;9.73;;
24859;SDS011;12936;52.006;4.350;2023-12-14T02:03:15;11.23;;;8.43;;
24859;SDS011;12936;52.006;4.350;2023-12-14T02:05:43;15.73;;;9.50;;
24859;SDS011;12936;52.006;4.350;2023-12-14T02:08:12;17.57;;;8.83;;
24859;SDS011;12936;52.006;4.350;2023-12-14T02:10:41;15.73;;;8.83;;
24859;SDS011;12936;52.006;4.350;2023-12-14T02:13:10;18.77;;;9.67;;
24859;SDS011;12936;52.006;4.350;2023-12-14T02:15:40;22.37;;;8.93;;
24859;SDS011;12936;52.006;4.350;2023-12-14T02:18:08;18.10;;;9.50;;
24859;SDS011;12936;52.006;4.350;2023-12-14T02:20:39;19.03;;;9.30;;
24859;SDS011;12936;52.006;4.350;2023-12-14T02:23:11;19.60;;;9.57;;
24859;SDS011;12936;52.006;4.350;2023-12-14T02:25:41;11.30;;;8.23;;
24859;SDS011;12936;52.006;4.350;2023-12-14T02:28:09;14.87;;;8.10;;
24859;SDS011;12936;52.006;4.350;2023-12-14T02:30:38;19.30;;;9.40;;
24859;SDS011;12936;52.006;4.350;2023-12-14T02:33:06;13.50;;;8.20;;
24859;SDS011;12936;52.006;4.350;2023-12-14T02:35:35;11.93;;;8.17;;
24859;SDS011;12936;52.006;4.350;2023-12-14T02:38:03;12.63;;;8.30;;
24859;SDS011;12936;52.006;4.350;2023-12-14T02:40:33;14.93;;;9.10;;
24859;SDS011;12936;52.006;4.350;2023-12-14T02:43:02;16.90;;;8.93;;
24859;SDS011;12936;52.006;4.350;2023-12-14T02:45:33;13.87;;;7.90;;
24859;SDS011;12936;52.006;4.350;2023-12-14T02:48:22;16.00;;;9.93;;
24859;SDS011;12936;52.006;4.350;2023-12-14T02:50:50;18.63;;;9.70;;
24859;SDS011;12936;52.006;4.350;2023-12-14T02:53:18;17.07;;;9.33;;
24859;SDS011;12936;52.006;4.350;2023-12-14T02:55:50;14.60;;;9.20;;
24859;SDS011;12936;52.006;4.350;2023-12-14T02:58:20;16.97;;;8.00;;
24859;SDS011;12936;52.006;4.350;2023-12-14T03:01:28;16.20;;;7.93;;
24859;SDS011;12936;52.006;4.350;2023-12-14T03:04:16;11.73;;;7.33;;
24859;SDS011;12936;52.006;4.350;2023-12-14T03:06:45;15.50;;;8.40;;
24859;SDS011;12936;52.006;4.350;2023-12-14T03:09:14;14.57;;;8.50;;
24859;SDS011;12936;52.006;4.350;2023-12-14T03:11:48;20.47;;;8.53;;
24859;SDS011;12936;52.006;4.350;2023-12-14T03:14:17;13.23;;;8.47;;
24859;SDS011;12936;52.006;4.350;2023-12-14T03:16:46;15.80;;;8.60;;
24859;SDS011;12936;52.006;4.350;2023-12-14T03:19:16;15.70;;;8.30;;
24859;SDS011;12936;52.006;4.350;2023-12-14T03:21:47;14.47;;;8.03;;
24859;SDS011;12936;52.006;4.350;2023-12-14T03:24:16;14.57;;;8.13;;
24859;SDS011;12936;52.006;4.350;2023-12-14T03:26:45;14.80;;;7.80;;
24859;SDS011;12936;52.006;4.350;2023-12-14T03:29:30;11.63;;;7.80;;
24859;SDS011;12936;52.006;4.350;2023-12-14T03:31:58;15.53;;;8.63;;
24859;SDS011;12936;52.006;4.350;2023-12-14T03:34:27;15.23;;;9.17;;
24859;SDS011;12936;52.006;4.350;2023-12-14T03:36:55;18.63;;;6.90;;
24859;SDS011;12936;52.006;4.350;2023-12-14T03:39:25;18.20;;;8.27;;
24859;SDS011;12936;52.006;4.350;2023-12-14T03:41:53;10.10;;;6.43;;
24859;SDS011;12936;52.006;4.350;2023-12-14T03:44:22;12.23;;;7.03;;
24859;SDS011;12936;52.006;4.350;2023-12-14T03:46:53;13.30;;;7.10;;
24859;SDS011;12936;52.006;4.350;2023-12-14T03:49:22;11.87;;;7.07;;
24859;SDS011;12936;52.006;4.350;2023-12-14T03:51:51;11.27;;;6.53;;
24859;SDS011;12936;52.006;4.350;2023-12-14T03:54:19;12.00;;;6.77;;
24859;SDS011;12936;52.006;4.350;2023-12-14T03:56:47;13.20;;;6.20;;
24859;SDS011;12936;52.006;4.350;2023-12-14T03:59:17;12.33;;;5.20;;
24859;SDS011;12936;52.006;4.350;2023-12-14T04:01:48;9.50;;;6.03;;
24859;SDS011;12936;52.006;4.350;2023-12-14T04:04:17;12.17;;;6.33;;
24859;SDS011;12936;52.006;4.350;2023-12-14T04:06:46;12.67;;;6.07;;
24859;SDS011;12936;52.006;4.350;2023-12-14T04:09:14;9.13;;;5.47;;
24859;SDS011;12936;52.006;4.350;2023-12-14T04:11:43;13.43;;;6.20;;
24859;SDS011;12936;52.006;4.350;2023-12-14T04:14:14;11.33;;;5.73;;
24859;SDS011;12936;52.006;4.350;2023-12-14T04:16:42;11.13;;;5.40;;
24859;SDS011;12936;52.006;4.350;2023-12-14T04:19:10;9.17;;;4.83;;
24859;SDS011;12936;52.006;4.350;2023-12-14T04:21:42;11.23;;;5.33;;
24859;SDS011;12936;52.006;4.350;2023-12-14T04:24:10;10.57;;;5.17;;
24859;SDS011;12936;52.006;4.350;2023-12-14T04:26:41;8.03;;;4.50;;
24859;SDS011;12936;52.006;4.350;2023-12-14T04:29:09;10.07;;;4.20;;
24859;SDS011;12936;52.006;4.350;2023-12-14T04:31:38;11.80;;;4.93;;
24859;SDS011;12936;52.006;4.350;2023-12-14T04:34:06;10.43;;;5.10;;
24859;SDS011;12936;52.006;4.350;2023-12-14T04:36:38;9.17;;;4.00;;
24859;SDS011;12936;52.006;4.350;2023-12-14T04:39:08;9.13;;;4.73;;
24859;SDS011;12936;52.006;4.350;2023-12-14T04:41:40;9.50;;;4.43;;
24859;SDS011;12936;52.006;4.350;2023-12-14T04:44:08;6.30;;;4.30;;
24859;SDS011;12936;52.006;4.350;2023-12-14T04:46:38;11.23;;;4.77;;
24859;SDS011;12936;52.006;4.350;2023-12-14T04:49:08;9.83;;;4.40;;
24859;SDS011;12936;52.006;4.350;2023-12-14T04:52:01;12.60;;;4.33;;
24859;SDS011;12936;52.006;4.350;2023-12-14T04:54:31;9.80;;;4.30;;
24859;SDS011;12936;52.006;4.350;2023-12-14T04:57:04;9.53;;;4.47;;
24859;SDS011;12936;52.006;4.350;2023-12-14T04:59:32;12.90;;;4.60;;
24859;SDS011;12936;52.006;4.350;2023-12-14T05:02:00;9.07;;;4.33;;
24859;SDS011;12936;52.006;4.350;2023-12-14T05:04:30;9.93;;;4.10;;
24859;SDS011;12936;52.006;4.350;2023-12-14T05:07:01;7.63;;;3.40;;
24859;SDS011;12936;52.006;4.350;2023-12-14T05:09:32;8.57;;;3.70;;
24859;SDS011;12936;52.006;4.350;2023-12-14T05:12:01;7.80;;;4.03;;
24859;SDS011;12936;52.006;4.350;2023-12-14T05:14:32;8.90;;;3.57;;
24859;SDS011;12936;52.006;4.350;2023-12-14T05:17:03;6.23;;;3.40;;
24859;SDS011;12936;52.006;4.350;2023-12-14T05:19:34;10.33;;;3.53;;
24859;SDS011;12936;52.006;4.350;2023-12-14T05:22:04;12.20;;;4.00;;
24859;SDS011;12936;52.006;4.350;2023-12-14T05:24:33;9.37;;;4.57;;
24859;SDS011;12936;52.006;4.350;2023-12-14T05:27:03;8.30;;;4.10;;
24859;SDS011;12936;52.006;4.350;2023-12-14T05:29:33;7.17;;;3.87;;
24859;SDS011;12936;52.006;4.350;2023-12-14T05:32:05;8.67;;;3.97;;
24859;SDS011;12936;52.006;4.350;2023-12-14T05:34:33;6.50;;;3.90;;
24859;SDS011;12936;52.006;4.350;2023-12-14T05:37:02;6.43;;;3.70;;
24859;SDS011;12936;52.006;4.350;2023-12-14T05:39:34;10.73;;;4.00;;
24859;SDS011;12936;52.006;4.350;2023-12-14T05:42:22;8.90;;;4.10;;
24859;SDS011;12936;52.006;4.350;2023-12-14T05:44:52;8.90;;;3.77;;
24859;SDS011;12936;52.006;4.350;2023-12-14T05:47:21;8.27;;;4.00;;
24859;SDS011;12936;52.006;4.350;2023-12-14T05:49:49;8.70;;;3.90;;
24859;SDS011;12936;52.006;4.350;2023-12-14T05:52:17;6.33;;;3.50;;
24859;SDS011;12936;52.006;4.350;2023-12-14T05:54:46;8.03;;;4.00;;
24859;SDS011;12936;52.006;4.350;2023-12-14T05:57:14;9.10;;;3.93;;
24859;SDS011;12936;52.006;4.350;2023-12-14T05:59:42;7.37;;;3.80;;
24859;SDS011;12936;52.006;4.350;2023-12-14T06:02:10;6.87;;;3.63;;
24859;SDS011;12936;52.006;4.350;2023-12-14T06:04:39;6.90;;;3.93;;
24859;SDS011;12936;52.006;4.350;2023-12-14T06:07:10;7.63;;;3.87;;
24859;SDS011;12936;52.006;4.350;2023-12-14T06:09:39;8.67;;;3.93;;
24859;SDS011;12936;52.006;4.350;2023-12-14T06:12:08;7.53;;;4.20;;
24859;SDS011;12936;52.006;4.350;2023-12-14T06:14:40;11.83;;;4.00;;
24859;SDS011;12936;52.006;4.350;2023-12-14T06:17:08;7.87;;;4.20;;
24859;SDS011;12936;52.006;4.350;2023-12-14T06:19:36;6.37;;;3.90;;
24859;SDS011;12936;52.006;4.350;2023-12-14T06:22:04;7.17;;;4.27;;
24859;SDS011;12936;52.006;4.350;2023-12-14T06:24:33;9.00;;;4.50;;
24859;SDS011;12936;52.006;4.350;2023-12-14T06:27:01;9.57;;;4.27;;
24859;SDS011;12936;52.006;4.350;2023-12-14T06:29:31;7.60;;;4.17;;
24859;SDS011;12936;52.006;4.350;2023-12-14T06:31:59;9.43;;;4.37;;
24859;SDS011;12936;52.006;4.350;2023-12-14T06:34:27;8.57;;;4.53;;
24859;SDS011;12936;52.006;4.350;2023-12-14T06:36:55;8.50;;;4.90;;
24859;SDS011;12936;52.006;4.350;2023-12-14T06:39:26;9.93;;;4.60;;
24859;SDS011;12936;52.006;4.350;2023-12-14T06:41:54;10.63;;;4.50;;
24859;SDS011;12936;52.006;4.350;2023-12-14T06:44:23;8.03;;;4.67;;
24859;SDS011;12936;52.006;4.350;2023-12-14T06:46:54;8.03;;;4.20;;
24859;SDS011;12936;52.006;4.350;2023-12-14T06:49:24;12.70;;;4.90;;
24859;SDS011;12936;52.006;4.350;2023-12-14T06:51:52;11.40;;;5.50;;
24859;SDS011;12936;52.006;4.350;2023-12-14T06:54:21;8.70;;;4.67;;
24859;SDS011;12936;52.006;4.350;2023-12-14T06:56:49;10.67;;;5.57;;
24859;SDS011;12936;52.006;4.350;2023-12-14T06:59:17;10.17;;;5.47;;
24859;SDS011;12936;52.006;4.350;2023-12-14T07:01:45;13.20;;;5.80;;
24859;SDS011;12936;52.006;4.350;2023-12-14T07:04:15;12.03;;;6.53;;
24859;SDS011;12936;52.006;4.350;2023-12-14T07:06:49;15.33;;;6.27;;
24859;SDS011;12936;52.006;4.350;2023-12-14T07:09:18;9.03;;;5.67;;
24859;SDS011;12936;52.006;4.350;2023-12-14T07:11:46;10.80;;;6.53;;
24859;SDS011;12936;52.006;4.350;2023-12-14T07:14:15;7.60;;;5.53;;
24859;SDS011;12936;52.006;4.350;2023-12-14T07:16:43;7.87;;;5.27;;
24859;SDS011;12936;52.006;4.350;2023-12-14T07:19:11;12.03;;;6.77;;
24859;SDS011;12936;52.006;4.350;2023-12-14T07:21:39;10.03;;;5.53;;
24859;SDS011;12936;52.006;4.350;2023-12-14T07:24:07;9.47;;;5.30;;
24859;SDS011;12936;52.006;4.350;2023-12-14T07:26:38;11.60;;;5.97;;
24859;SDS011;12936;52.006;4.350;2023-12-14T07:29:06;9.30;;;5.73;;
24859;SDS011;12936;52.006;4.350;2023-12-14T07:31:35;8.27;;;5.87;;
24859;SDS011;12936;52.006;4.350;2023-12-14T07:34:04;9.43;;;5.40;;
24859;SDS011;12936;52.006;4.350;2023-12-14T07:36:32;10.77;;;5.57;;
24859;SDS011;12936;52.006;4.350;2023-12-14T07:39:02;9.97;;;5.27;;
24859;SDS011;12936;52.006;4.350;2023-12-14T07:41:31;12.10;;;6.00;;
24859;SDS011;12936;52.006;4.350;2023-12-14T07:43:59;9.40;;;6.27;;
24859;SDS011;12936;52.006;4.350;2023-12-14T07:46:31;7.93;;;5.80;;
24859;SDS011;12936;52.006;4.350;2023-12-14T07:48:59;11.47;;;6.10;;
24859;SDS011;12936;52.006;4.350;2023-12-14T07:51:28;11.80;;;6.00;;
24859;SDS011;12936;52.006;4.350;2023-12-14T07:53:56;10.50;;;6.23;;
24859;SDS011;12936;52.006;4.350;2023-12-14T07:56:25;10.30;;;5.73;;
24859;SDS011;12936;52.006;4.350;2023-12-14T07:58:54;8.40;;;5.97;;
24859;SDS011;12936;52.006;4.350;2023-12-14T08:01:22;10.90;;;6.27;;
24859;SDS011;12936;52.006;4.350;2023-12-14T08:03:50;11.90;;;6.33;;
24859;SDS011;12936;52.006;4.350;2023-12-14T08:06:18;11.00;;;6.10;;
24859;SDS011;12936;52.006;4.350;2023-12-14T08:08:47;13.03;;;6.13;;
24859;SDS011;12936;52.006;4.350;2023-12-14T08:11:15;11.77;;;6.30;;
24859;SDS011;12936;52.006;4.350;2023-12-14T08:13:44;11.00;;;6.53;;
24859;SDS011;12936;52.006;4.350;2023-12-14T08:16:13;13.23;;;6.37;;
24859;SDS011;12936;52.006;4.350;2023-12-14T08:18:43;11.70;;;6.53;;
24859;SDS011;12936;52.006;4.350;2023-12-14T08:21:12;11.00;;;6.07;;
24859;SDS011;12936;52.006;4.350;2023-12-14T08:23:40;15.77;;;6.60;;
24859;SDS011;12936;52.006;4.350;2023-12-14T08:26:08;12.87;;;6.80;;
24859;SDS011;12936;52.006;4.350;2023-12-14T08:28:39;12.33;;;6.17;;
24859;SDS011;12936;52.006;4.350;2023-12-14T08:31:09;9.33;;;6.63;;
24859;SDS011;12936;52.006;4.350;2023-12-14T08:33:40;10.60;;;6.60;;
24859;SDS011;12936;52.006;4.350;2023-12-14T08:36:14;12.80;;;6.80;;
24859;SDS011;12936;52.006;4.350;2023-12-14T08:38:43;12.07;;;7.00;;
24859;SDS011;12936;52.006;4.350;2023-12-14T08:41:12;12.90;;;6.40;;
24859;SDS011;12936;52.006;4.350;2023-12-14T08:43:41;11.20;;;6.63;;
24859;SDS011;12936;52.006;4.350;2023-12-14T08:46:11;12.13;;;6.27;;
24859;SDS011;12936;52.006;4.350;2023-12-14T08:48:39;12.10;;;6.80;;
24859;SDS011;12936;52.006;4.350;2023-12-14T08:51:07;10.47;;;6.13;;
24859;SDS011;12936;52.006;4.350;2023-12-14T08:53:35;10.10;;;6.03;;
24859;SDS011;12936;52.006;4.350;2023-12-14T08:56:04;10.83;;;6.30;;
24859;SDS011;12936;52.006;4.350;2023-12-14T08:58:32;9.47;;;5.47;;
24859;SDS011;12936;52.006;4.350;2023-12-14T09:01:00;9.57;;;5.17;;
24859;SDS011;12936;52.006;4.350;2023-12-14T09:03:30;9.47;;;4.80;;
24859;SDS011;12936;52.006;4.350;2023-12-14T09:05:58;12.60;;;6.23;;
24859;SDS011;12936;52.006;4.350;2023-12-14T09:08:29;9.47;;;5.60;;
24859;SDS011;12936;52.006;4.350;2023-12-14T09:10:57;10.20;;;4.77;;
24859;SDS011;12936;52.006;4.350;2023-12-14T09:13:25;9.63;;;5.23;;
24859;SDS011;12936;52.006;4.350;2023-12-14T09:15:53;9.80;;;5.50;;
24859;SDS011;12936;52.006;4.350;2023-12-14T09:18:21;12.37;;;5.50;;
24859;SDS011;12936;52.006;4.350;2023-12-14T09:20:52;11.63;;;5.70;;
24859;SDS011;12936;52.006;4.350;2023-12-14T09:23:20;9.57;;;5.70;;
24859;SDS011;12936;52.006;4.350;2023-12-14T09:25:48;9.50;;;5.93;;
24859;SDS011;12936;52.006;4.350;2023-12-14T09:28:17;14.00;;;6.07;;
24859;SDS011;12936;52.006;4.350;2023-12-14T09:30:45;10.90;;;5.40;;
24859;SDS011;12936;52.006;4.350;2023-12-14T09:33:13;15.37;;;6.33;;
24859;SDS011;12936;52.006;4.350;2023-12-14T09:35:42;11.50;;;5.53;;
24859;SDS011;12936;52.006;4.350;2023-12-14T09:38:11;8.40;;;5.83;;
24859;SDS011;12936;52.006;4.350;2023-12-14T09:40:43;10.23;;;5.70;;
24859;SDS011;12936;52.006;4.350;2023-12-14T09:43:11;11.73;;;5.93;;
24859;SDS011;12936;52.006;4.350;2023-12-14T09:45:40;12.17;;;6.23;;
24859;SDS011;12936;52.006;4.350;2023-12-14T09:48:11;11.20;;;6.70;;
24859;SDS011;12936;52.006;4.350;2023-12-14T09:50:40;15.27;;;7.13;;
24859;SDS011;12936;52.006;4.350;2023-12-14T09:53:09;11.13;;;6.57;;
24859;SDS011;12936;52.006;4.350;2023-12-14T09:55:38;15.17;;;7.20;;
24859;SDS011;12936;52.006;4.350;2023-12-14T09:58:06;10.70;;;6.60;;
24859;SDS011;12936;52.006;4.350;2023-12-14T10:00:37;11.63;;;6.80;;
24859;SDS011;12936;52.006;4.350;2023-12-14T10:03:22;8.87;;;6.47;;
24859;SDS011;12936;52.006;4.350;2023-12-14T10:05:52;13.97;;;6.60;;
24859;SDS011;12936;52.006;4.350;2023-12-14T10:08:22;9.73;;;6.50;;
24859;SDS011;12936;52.006;4.350;2023-12-14T10:10:53;10.87;;;6.80;;
24859;SDS011;12936;52.006;4.350;2023-12-14T10:13:35;12.57;;;6.63;;
24859;SDS011;12936;52.006;4.350;2023-12-14T10:16:04;14.63;;;6.53;;
24859;SDS011;12936;52.006;4.350;2023-12-14T10:18:32;11.43;;;7.27;;
24859;SDS011;12936;52.006;4.350;2023-12-14T10:21:03;8.80;;;6.23;;
24859;SDS011;12936;52.006;4.350;2023-12-14T10:23:33;8.43;;;6.47;;
24859;SDS011;12936;52.006;4.350;2023-12-14T10:26:05;12.93;;;6.13;;
24859;SDS011;12936;52.006;4.350;2023-12-14T10:28:33;9.87;;;6.53;;
24859;SDS011;12936;52.006;4.350;2023-12-14T10:31:01;23.97;;;8.70;;
24859;SDS011;12936;52.006;4.350;2023-12-14T10:33:32;14.47;;;7.90;;
24859;SDS011;12936;52.006;4.350;2023-12-14T10:36:00;30.07;;;10.67;;
24859;SDS011;12936;52.006;4.350;2023-12-14T10:38:29;59.23;;;18.70;;
24859;SDS011;12936;52.006;4.350;2023-12-14T10:41:00;31.63;;;10.77;;
24859;SDS011;12936;52.006;4.350;2023-12-14T10:43:30;28.00;;;11.83;;
24859;SDS011;12936;52.006;4.350;2023-12-14T10:46:15;13.97;;;6.60;;
24859;SDS011;12936;52.006;4.350;2023-12-14T10:48:45;12.00;;;6.63;;
24859;SDS011;12936;52.006;4.350;2023-12-14T10:51:16;12.10;;;6.80;;
24859;SDS011;12936;52.006;4.350;2023-12-14T10:53:46;9.40;;;5.93;;
24859;SDS011;12936;52.006;4.350;2023-12-14T10:56:16;12.67;;;6.03;;
24859;SDS011;12936;52.006;4.350;2023-12-14T10:58:46;11.30;;;5.90;;
24859;SDS011;12936;52.006;4.350;2023-12-14T11:01:16;14.63;;;5.77;;
24859;SDS011;12936;52.006;4.350;2023-12-14T11:03:46;12.50;;;6.20;;
24859;SDS011;12936;52.006;4.350;2023-12-14T11:06:29;9.67;;;6.30;;
24859;SDS011;12936;52.006;4.350;2023-12-14T11:08:59;11.37;;;6.57;;
24859;SDS011;12936;52.006;4.350;2023-12-14T11:11:40;10.43;;;5.93;;
24859;SDS011;12936;52.006;4.350;2023-12-14T11:14:12;10.33;;;6.30;;
24859;SDS011;12936;52.006;4.350;2023-12-14T11:16:40;11.00;;;6.60;;
24859;SDS011;12936;52.006;4.350;2023-12-14T11:19:26;11.77;;;6.40;;
24859;SDS011;12936;52.006;4.350;2023-12-14T11:22:23;9.87;;;5.67;;
24859;SDS011;12936;52.006;4.350;2023-12-14T11:24:53;11.40;;;6.70;;
24859;SDS011;12936;52.006;4.350;2023-12-14T11:27:26;12.13;;;6.30;;
24859;SDS011;12936;52.006;4.350;2023-12-14T11:29:57;10.50;;;6.80;;
24859;SDS011;12936;52.006;4.350;2023-12-14T11:32:26;13.33;;;6.43;;
24859;SDS011;12936;52.006;4.350;2023-12-14T11:34:55;9.57;;;6.10;;
24859;SDS011;12936;52.006;4.350;2023-12-14T11:37:23;8.90;;;5.70;;
24859;SDS011;12936;52.006;4.350;2023-12-14T11:39:52;11.20;;;6.67;;
24859;SDS011;12936;52.006;4.350;2023-12-14T11:42:21;11.30;;;5.70;;
24859;SDS011;12936;52.006;4.350;2023-12-14T11:44:49;10.00;;;5.60;;
24859;SDS011;12936;52.006;4.350;2023-12-14T11:47:19;8.77;;;5.50;;
24859;SDS011;12936;52.006;4.350;2023-12-14T11:49:47;9.57;;;5.47;;
24859;SDS011;12936;52.006;4.350;2023-12-14T11:52:16;10.27;;;5.73;;
24859;SDS011;12936;52.006;4.350;2023-12-14T11:54:45;10.70;;;5.90;;
24859;SDS011;12936;52.006;4.350;2023-12-14T11:57:13;10.17;;;5.63;;
24859;SDS011;12936;52.006;4.350;2023-12-14T11:59:44;11.97;;;6.37;;
24859;SDS011;12936;52.006;4.350;2023-12-14T12:02:22;7.97;;;5.63;;
24859;SDS011;12936;52.006;4.350;2023-12-14T12:04:52;12.73;;;5.80;;
24859;SDS011;12936;52.006;4.350;2023-12-14T12:07:20;10.40;;;5.30;;
24859;SDS011;12936;52.006;4.350;2023-12-14T12:09:49;6.80;;;4.80;;
24859;SDS011;12936;52.006;4.350;2023-12-14T12:12:17;9.03;;;5.40;;
24859;SDS011;12936;52.006;4.350;2023-12-14T12:14:45;9.33;;;4.80;;
24859;SDS011;12936;52.006;4.350;2023-12-14T12:17:15;9.87;;;4.63;;
24859;SDS011;12936;52.006;4.350;2023-12-14T12:19:47;9.03;;;5.20;;
24859;SDS011;12936;52.006;4.350;2023-12-14T12:22:15;9.67;;;5.00;;
24859;SDS011;12936;52.006;4.350;2023-12-14T12:24:43;8.50;;;5.90;;
24859;SDS011;12936;52.006;4.350;2023-12-14T12:27:14;12.43;;;6.67;;
24859;SDS011;12936;52.006;4.350;2023-12-14T12:29:42;13.97;;;5.90;;
24859;SDS011;12936;52.006;4.350;2023-12-14T12:32:11;14.47;;;6.73;;
24859;SDS011;12936;52.006;4.350;2023-12-14T12:34:39;10.90;;;6.23;;
24859;SDS011;12936;52.006;4.350;2023-12-14T12:37:09;9.97;;;6.40;;
24859;SDS011;12936;52.006;4.350;2023-12-14T12:39:37;9.80;;;6.33;;
24859;SDS011;12936;52.006;4.350;2023-12-14T12:42:06;9.67;;;6.60;;
24859;SDS011;12936;52.006;4.350;2023-12-14T12:44:34;12.47;;;7.20;;
24859;SDS011;12936;52.006;4.350;2023-12-14T12:47:02;10.97;;;7.00;;
24859;SDS011;12936;52.006;4.350;2023-12-14T12:49:36;15.77;;;6.57;;
24859;SDS011;12936;52.006;4.350;2023-12-14T12:52:05;11.17;;;7.03;;
24859;SDS011;12936;52.006;4.350;2023-12-14T12:54:35;13.77;;;7.43;;
24859;SDS011;12936;52.006;4.350;2023-12-14T12:57:03;10.00;;;6.60;;
24859;SDS011;12936;52.006;4.350;2023-12-14T12:59:31;13.97;;;7.40;;
24859;SDS011;12936;52.006;4.350;2023-12-14T13:02:00;12.97;;;6.50;;
24859;SDS011;12936;52.006;4.350;2023-12-14T13:04:28;12.00;;;6.70;;
24859;SDS011;12936;52.006;4.350;2023-12-14T13:06:58;11.63;;;6.53;;
24859;SDS011;12936;52.006;4.350;2023-12-14T13:09:28;13.87;;;6.27;;
24859;SDS011;12936;52.006;4.350;2023-12-14T13:11:57;12.47;;;6.10;;
24859;SDS011;12936;52.006;4.350;2023-12-14T13:14:26;9.83;;;6.27;;
24859;SDS011;12936;52.006;4.350;2023-12-14T13:16:54;11.10;;;6.00;;
24859;SDS011;12936;52.006;4.350;2023-12-14T13:19:24;12.17;;;6.00;;
24859;SDS011;12936;52.006;4.350;2023-12-14T13:21:55;10.93;;;5.60;;
24859;SDS011;12936;52.006;4.350;2023-12-14T13:24:26;9.20;;;5.43;;
24859;SDS011;12936;52.006;4.350;2023-12-14T13:26:54;8.77;;;5.47;;
24859;SDS011;12936;52.006;4.350;2023-12-14T13:29:23;10.70;;;5.97;;
24859;SDS011;12936;52.006;4.350;2023-12-14T13:31:51;11.17;;;5.37;;
24859;SDS011;12936;52.006;4.350;2023-12-14T13:34:20;12.17;;;5.37;;
24859;SDS011;12936;52.006;4.350;2023-12-14T13:36:48;13.87;;;5.30;;
24859;SDS011;12936;52.006;4.350;2023-12-14T13:39:16;8.97;;;5.20;;
24859;SDS011;12936;52.006;4.350;2023-12-14T13:41:45;10.97;;;5.30;;
24859;SDS011;12936;52.006;4.350;2023-12-14T13:44:16;7.67;;;5.50;;
24859;SDS011;12936;52.006;4.350;2023-12-14T13:46:46;12.13;;;5.80;;
24859;SDS011;12936;52.006;4.350;2023-12-14T13:49:14;9.50;;;5.80;;
24859;SDS011;12936;52.006;4.350;2023-12-14T13:51:42;10.17;;;5.70;;
24859;SDS011;12936;52.006;4.350;2023-12-14T13:54:10;11.50;;;5.93;;
24859;SDS011;12936;52.006;4.350;2023-12-14T13:56:39;10.80;;;5.70;;
24859;SDS011;12936;52.006;4.350;2023-12-14T13:59:08;11.37;;;5.73;;
24859;SDS011;12936;52.006;4.350;2023-12-14T14:01:37;9.60;;;5.00;;
24859;SDS011;12936;52.006;4.350;2023-12-14T14:04:06;10.30;;;5.40;;
24859;SDS011;12936;52.006;4.350;2023-12-14T14:06:35;8.73;;;5.23;;
24859;SDS011;12936;52.006;4.350;2023-12-14T14:09:04;10.60;;;5.50;;
24859;SDS011;12936;52.006;4.350;2023-12-14T14:11:33;11.90;;;5.27;;
24859;SDS011;12936;52.006;4.350;2023-12-14T14:14:03;12.33;;;5.00;;
24859;SDS011;12936;52.006;4.350;2023-12-14T14:16:31;10.13;;;5.50;;
24859;SDS011;12936;52.006;4.350;2023-12-14T14:19:00;7.83;;;4.70;;
24859;SDS011;12936;52.006;4.350;2023-12-14T14:21:30;10.73;;;5.10;;
24859;SDS011;12936;52.006;4.350;2023-12-14T14:23:58;12.20;;;4.60;;
24859;SDS011;12936;52.006;4.350;2023-12-14T14:26:26;10.97;;;4.27;;
24859;SDS011;12936;52.006;4.350;2023-12-14T14:28:55;11.23;;;4.40;;
24859;SDS011;12936;52.006;4.350;2023-12-14T14:31:26;8.60;;;4.50;;
24859;SDS011;12936;52.006;4.350;2023-12-14T14:33:58;7.43;;;3.87;;
24859;SDS011;12936;52.006;4.350;2023-12-14T14:36:27;8.70;;;4.03;;
24859;SDS011;12936;52.006;4.350;2023-12-14T14:38:56;8.80;;;3.90;;
24859;SDS011;12936;52.006;4.350;2023-12-14T14:41:24;7.77;;;3.23;;
24859;SDS011;12936;52.006;4.350;2023-12-14T14:43:53;9.97;;;3.60;;
24859;SDS011;12936;52.006;4.350;2023-12-14T14:46:21;11.43;;;4.00;;
24859;SDS011;12936;52.006;4.350;2023-12-14T14:48:49;10.43;;;3.13;;
24859;SDS011;12936;52.006;4.350;2023-12-14T14:51:17;7.97;;;3.43;;
24859;SDS011;12936;52.006;4.350;2023-12-14T14:53:45;8.00;;;2.90;;